Check out our new PWSWeather beta!
PWSweather.com
Personal Weather Stations
Station Observations
GRD01
Warsaw, LesznoPL 05-084

WarsawLesznoPL 05-084

Lat: 52.257404, Lon: 20.564847

Elevation: 298

Station Type: WH3080

http://pogoda.kampinos.waw.pl

High Low Average
Temperature 79.5°F26.4°C 52.5°F11.4°C 66.1°F18.9°C
Dew Point 56.4°F13.6°C 49.1°F9.5°C 52.1°F11.2°C
Winds 8.3 mph 13.4 kmh Calm Calm 2.0 mph SE3.2 kmh SE
Wind Gusts 13.0 mph20.9 kmh 0.7 mph1.1 kmh 5.0 mph8.0 kmh
Humidity 92% 39% 64%
Pressure 30.85 in1044.7 mb 30.75 in1041.3 mb -
Precipitation 0.00 in0.0 mm - -
Hour Temp Dew Point Humidity Winds Wind Gusts Pressure Precip Precip Rate Daily Precip Total
12:00 AM 58.5°F14.7°C 51.3°F10.7°C 77% 2.2 mph NE3.5 kmh NE 3.1 mph5.0 kmh 30.82 in1043.7 mb 0.00 in0.0 mm 0.00 in0.0 mm 0.00 in0.0 mm
12:05 AM 58.5°F14.7°C 50.9°F10.5°C 76% 2.2 mph N3.5 kmh N 3.1 mph5.0 kmh 30.38 in1028.8 mb 0.00 in0.0 mm 0.00 in0.0 mm 0.00 in0.0 mm
12:15 AM 57.9°F14.4°C 50.8°F10.4°C 77% 2.2 mph NE3.5 kmh NE 3.1 mph5.0 kmh 30.82 in1043.7 mb 0.00 in0.0 mm 0.00 in0.0 mm 0.00 in0.0 mm
12:30 AM 57.7°F14.3°C 50.9°F10.5°C 78% 0.7 mph ENE1.1 kmh ENE 3.8 mph6.1 kmh 30.82 in1043.7 mb 0.00 in0.0 mm 0.00 in0.0 mm 0.00 in0.0 mm
12:35 AM 57.7°F14.3°C 50.9°F10.5°C 78% 0.7 mph NE1.1 kmh NE 2.2 mph3.5 kmh 30.38 in1028.8 mb 0.00 in0.0 mm 0.00 in0.0 mm 0.00 in0.0 mm
12:45 AM 57.4°F14.1°C 50.6°F10.3°C 78% 0.7 mph NE1.1 kmh NE 2.2 mph3.5 kmh 30.82 in1043.7 mb 0.00 in0.0 mm 0.00 in0.0 mm 0.00 in0.0 mm
01:00 AM 56.8°F13.8°C 50.1°F10.1°C 78% Calm Calm 2.2 mph3.5 kmh 30.82 in1043.7 mb 0.00 in0.0 mm 0.00 in0.0 mm 0.00 in0.0 mm
01:05 AM 56.8°F13.8°C 50.1°F10.1°C 78% Calm Calm 0.7 mph1.1 kmh 30.38 in1028.8 mb 0.00 in0.0 mm 0.00 in0.0 mm 0.00 in0.0 mm
01:15 AM 56.3°F13.5°C 50.2°F10.1°C 80% Calm Calm 0.7 mph1.1 kmh 30.82 in1043.7 mb 0.00 in0.0 mm 0.00 in0.0 mm 0.00 in0.0 mm
01:30 AM 55.6°F13.1°C 49.5°F9.7°C 80% 0.7 mph NE1.1 kmh NE 2.2 mph3.5 kmh 30.82 in1043.7 mb 0.00 in0.0 mm 0.00 in0.0 mm 0.00 in0.0 mm
01:35 AM 55.6°F13.1°C 49.5°F9.7°C 80% 1.6 mph NE2.6 kmh NE 2.2 mph3.5 kmh 30.38 in1028.8 mb 0.00 in0.0 mm 0.00 in0.0 mm 0.00 in0.0 mm
01:45 AM 54.9°F12.7°C 49.1°F9.5°C 81% 3.1 mph NNE5.0 kmh NNE 3.8 mph6.1 kmh 30.82 in1043.7 mb 0.00 in0.0 mm 0.00 in0.0 mm 0.00 in0.0 mm
02:00 AM 54.7°F12.6°C 49.3°F9.6°C 82% 1.6 mph NNE2.6 kmh NNE 3.8 mph6.1 kmh 30.81 in1043.3 mb 0.00 in0.0 mm 0.00 in0.0 mm 0.00 in0.0 mm
02:05 AM 54.7°F12.6°C 49.3°F9.6°C 82% 1.6 mph N2.6 kmh N 2.2 mph3.5 kmh 30.37 in1028.4 mb 0.00 in0.0 mm 0.00 in0.0 mm 0.00 in0.0 mm
02:15 AM 54.5°F12.5°C 49.4°F9.7°C 83% 1.6 mph N2.6 kmh N 3.1 mph5.0 kmh 30.81 in1043.3 mb 0.00 in0.0 mm 0.00 in0.0 mm 0.00 in0.0 mm
02:30 AM 54.3°F12.4°C 50.5°F10.3°C 87% 0.7 mph N1.1 kmh N 2.2 mph3.5 kmh 30.82 in1043.7 mb 0.00 in0.0 mm 0.00 in0.0 mm 0.00 in0.0 mm
02:35 AM 54.3°F12.4°C 50.5°F10.3°C 87% 1.6 mph N2.6 kmh N 1.6 mph2.6 kmh 30.37 in1028.4 mb 0.00 in0.0 mm 0.00 in0.0 mm 0.00 in0.0 mm
02:45 AM 54.1°F12.3°C 50.7°F10.4°C 88% Calm Calm 2.2 mph3.5 kmh 30.81 in1043.3 mb 0.00 in0.0 mm 0.00 in0.0 mm 0.00 in0.0 mm
03:00 AM 54.0°F12.2°C 50.5°F10.3°C 88% Calm Calm 1.6 mph2.6 kmh 30.81 in1043.3 mb 0.00 in0.0 mm 0.00 in0.0 mm 0.00 in0.0 mm
03:05 AM 54.0°F12.2°C 50.5°F10.3°C 88% Calm Calm 0.7 mph1.1 kmh 30.38 in1028.8 mb 0.00 in0.0 mm 0.00 in0.0 mm 0.00 in0.0 mm
03:15 AM 53.2°F11.8°C 49.8°F9.9°C 88% 2.2 mph NNE3.5 kmh NNE 3.1 mph5.0 kmh 30.82 in1043.7 mb 0.00 in0.0 mm 0.00 in0.0 mm 0.00 in0.0 mm
03:30 AM 53.1°F11.7°C 49.9°F9.9°C 89% 2.2 mph N3.5 kmh N 3.8 mph6.1 kmh 30.81 in1043.3 mb 0.00 in0.0 mm 0.00 in0.0 mm 0.00 in0.0 mm
03:35 AM 53.1°F11.7°C 49.6°F9.8°C 88% 2.2 mph N3.5 kmh N 3.1 mph5.0 kmh 30.37 in1028.4 mb 0.00 in0.0 mm 0.00 in0.0 mm 0.00 in0.0 mm
03:45 AM 53.1°F11.7°C 49.9°F9.9°C 89% 1.6 mph N2.6 kmh N 3.8 mph6.1 kmh 30.82 in1043.7 mb 0.00 in0.0 mm 0.00 in0.0 mm 0.00 in0.0 mm
04:00 AM 52.5°F11.4°C 49.4°F9.7°C 89% 3.1 mph N5.0 kmh N 4.5 mph7.2 kmh 30.82 in1043.7 mb 0.00 in0.0 mm 0.00 in0.0 mm 0.00 in0.0 mm
04:05 AM 52.7°F11.5°C 49.5°F9.7°C 89% 3.1 mph N5.0 kmh N 3.8 mph6.1 kmh 30.38 in1028.8 mb 0.00 in0.0 mm 0.00 in0.0 mm 0.00 in0.0 mm
04:15 AM 52.5°F11.4°C 49.7°F9.8°C 90% 2.2 mph N3.5 kmh N 3.8 mph6.1 kmh 30.82 in1043.7 mb 0.00 in0.0 mm 0.00 in0.0 mm 0.00 in0.0 mm
04:30 AM 52.7°F11.5°C 49.8°F9.9°C 90% 2.2 mph NNE3.5 kmh NNE 3.8 mph6.1 kmh 30.82 in1043.7 mb 0.00 in0.0 mm 0.00 in0.0 mm 0.00 in0.0 mm
04:35 AM 52.7°F11.5°C 49.8°F9.9°C 90% 2.2 mph NE3.5 kmh NE 3.1 mph5.0 kmh 30.38 in1028.8 mb 0.00 in0.0 mm 0.00 in0.0 mm 0.00 in0.0 mm
04:45 AM 52.7°F11.5°C 49.8°F9.9°C 90% Calm Calm 1.6 mph2.6 kmh 30.83 in1044.0 mb 0.00 in0.0 mm 0.00 in0.0 mm 0.00 in0.0 mm
05:00 AM 52.5°F11.4°C 49.7°F9.8°C 90% 1.6 mph N2.6 kmh N 3.1 mph5.0 kmh 30.83 in1044.0 mb 0.00 in0.0 mm 0.00 in0.0 mm 0.00 in0.0 mm
05:05 AM 52.5°F11.4°C 49.7°F9.8°C 90% 1.6 mph N2.6 kmh N 2.2 mph3.5 kmh 30.39 in1029.1 mb 0.00 in0.0 mm 0.00 in0.0 mm 0.00 in0.0 mm
05:15 AM 52.7°F11.5°C 50.1°F10.1°C 91% 0.7 mph NNE1.1 kmh NNE 2.2 mph3.5 kmh 30.83 in1044.0 mb 0.00 in0.0 mm 0.00 in0.0 mm 0.00 in0.0 mm
05:30 AM 53.2°F11.8°C 50.7°F10.4°C 91% 3.1 mph N5.0 kmh N 3.8 mph6.1 kmh 30.83 in1044.0 mb 0.00 in0.0 mm 0.00 in0.0 mm 0.00 in0.0 mm
05:35 AM 53.1°F11.7°C 50.5°F10.3°C 91% 3.1 mph N5.0 kmh N 3.8 mph6.1 kmh 30.39 in1029.1 mb 0.00 in0.0 mm 0.00 in0.0 mm 0.00 in0.0 mm
05:45 AM 54.3°F12.4°C 52.0°F11.1°C 92% 2.2 mph NNE3.5 kmh NNE 3.8 mph6.1 kmh 30.83 in1044.0 mb 0.00 in0.0 mm 0.00 in0.0 mm 0.00 in0.0 mm
06:00 AM 55.4°F13.0°C 52.2°F11.2°C 89% 2.2 mph NE3.5 kmh NE 3.8 mph6.1 kmh 30.83 in1044.0 mb 0.00 in0.0 mm 0.00 in0.0 mm 0.00 in0.0 mm
06:05 AM 55.2°F12.9°C 52.0°F11.1°C 89% 1.6 mph NE2.6 kmh NE 2.2 mph3.5 kmh 30.40 in1029.5 mb 0.00 in0.0 mm 0.00 in0.0 mm 0.00 in0.0 mm
06:15 AM 57.2°F14.0°C 54.3°F12.4°C 90% 4.5 mph ESE7.2 kmh ESE 6.0 mph9.7 kmh 30.83 in1044.0 mb 0.00 in0.0 mm 0.00 in0.0 mm 0.00 in0.0 mm
06:30 AM 59.0°F15.0°C 54.8°F12.7°C 86% 4.5 mph E7.2 kmh E 6.9 mph11.1 kmh 30.83 in1044.0 mb 0.00 in0.0 mm 0.00 in0.0 mm 0.00 in0.0 mm
06:35 AM 58.6°F14.8°C 54.8°F12.7°C 87% 4.5 mph NE7.2 kmh NE 5.4 mph8.7 kmh 30.39 in1029.1 mb 0.00 in0.0 mm 0.00 in0.0 mm 0.00 in0.0 mm
06:45 AM 60.6°F15.9°C 54.8°F12.7°C 81% 2.2 mph E3.5 kmh E 6.0 mph9.7 kmh 30.83 in1044.0 mb 0.00 in0.0 mm 0.00 in0.0 mm 0.00 in0.0 mm
07:00 AM 61.5°F16.4°C 54.9°F12.7°C 79% 2.2 mph ENE3.5 kmh ENE 4.5 mph7.2 kmh 30.84 in1044.4 mb 0.00 in0.0 mm 0.00 in0.0 mm 0.00 in0.0 mm
07:05 AM 61.5°F16.4°C 54.9°F12.7°C 79% 2.2 mph NE3.5 kmh NE 3.8 mph6.1 kmh 30.39 in1029.1 mb 0.00 in0.0 mm 0.00 in0.0 mm 0.00 in0.0 mm
07:15 AM 63.5°F17.5°C 53.9°F12.2°C 71% 1.6 mph ESE2.6 kmh ESE 5.4 mph8.7 kmh 30.84 in1044.4 mb 0.00 in0.0 mm 0.00 in0.0 mm 0.00 in0.0 mm
07:30 AM 64.8°F18.2°C 54.7°F12.6°C 70% 0.7 mph E1.1 kmh E 6.9 mph11.1 kmh 30.84 in1044.4 mb 0.00 in0.0 mm 0.00 in0.0 mm 0.00 in0.0 mm
07:35 AM 64.6°F18.1°C 54.6°F12.6°C 70% 3.1 mph E5.0 kmh E 5.4 mph8.7 kmh 30.40 in1029.5 mb 0.00 in0.0 mm 0.00 in0.0 mm 0.00 in0.0 mm
07:45 AM 65.8°F18.8°C 55.4°F13.0°C 69% 4.5 mph E7.2 kmh E 5.4 mph8.7 kmh 30.84 in1044.4 mb 0.00 in0.0 mm 0.00 in0.0 mm 0.00 in0.0 mm
08:00 AM 66.7°F19.3°C 55.4°F13.0°C 67% 3.1 mph SSE5.0 kmh SSE 6.0 mph9.7 kmh 30.84 in1044.4 mb 0.00 in0.0 mm 0.00 in0.0 mm 0.00 in0.0 mm
08:05 AM 66.6°F19.2°C 55.3°F12.9°C 67% 3.8 mph S6.1 kmh S 4.5 mph7.2 kmh 30.39 in1029.1 mb 0.00 in0.0 mm 0.00 in0.0 mm 0.00 in0.0 mm
08:15 AM 67.8°F19.9°C 56.0°F13.3°C 66% 3.1 mph SSE5.0 kmh SSE 5.4 mph8.7 kmh 30.85 in1044.7 mb 0.00 in0.0 mm 0.00 in0.0 mm 0.00 in0.0 mm
08:30 AM 68.9°F20.5°C 56.2°F13.4°C 64% 1.6 mph SE2.6 kmh SE 3.8 mph6.1 kmh 30.84 in1044.4 mb 0.00 in0.0 mm 0.00 in0.0 mm 0.00 in0.0 mm
08:35 AM 68.9°F20.5°C 56.2°F13.4°C 64% 2.2 mph SE3.5 kmh SE 3.1 mph5.0 kmh 30.40 in1029.5 mb 0.00 in0.0 mm 0.00 in0.0 mm 0.00 in0.0 mm
08:45 AM 70.5°F21.4°C 56.4°F13.6°C 61% 4.5 mph ESE7.2 kmh ESE 6.9 mph11.1 kmh 30.84 in1044.4 mb 0.00 in0.0 mm 0.00 in0.0 mm 0.00 in0.0 mm
09:00 AM 71.8°F22.1°C 55.7°F13.2°C 57% 5.4 mph E8.7 kmh E 7.6 mph12.2 kmh 30.85 in1044.7 mb 0.00 in0.0 mm 0.00 in0.0 mm 0.00 in0.0 mm
09:05 AM 71.6°F22.0°C 56.0°F13.3°C 58% 3.1 mph E5.0 kmh E 4.5 mph7.2 kmh 30.40 in1029.5 mb 0.00 in0.0 mm 0.00 in0.0 mm 0.00 in0.0 mm
09:15 AM 72.9°F22.7°C 53.7°F12.1°C 51% 6.0 mph SE9.7 kmh SE 8.3 mph13.4 kmh 30.84 in1044.4 mb 0.00 in0.0 mm 0.00 in0.0 mm 0.00 in0.0 mm
09:30 AM 73.9°F23.3°C 54.1°F12.3°C 50% 7.6 mph E12.2 kmh E 10.7 mph17.2 kmh 30.84 in1044.4 mb 0.00 in0.0 mm 0.00 in0.0 mm 0.00 in0.0 mm
09:35 AM 73.8°F23.2°C 54.0°F12.2°C 50% 3.8 mph S6.1 kmh S 5.4 mph8.7 kmh 30.40 in1029.5 mb 0.00 in0.0 mm 0.00 in0.0 mm 0.00 in0.0 mm
09:45 AM 74.7°F23.7°C 53.1°F11.7°C 47% 4.5 mph ESE7.2 kmh ESE 8.3 mph13.4 kmh 30.84 in1044.4 mb 0.00 in0.0 mm 0.00 in0.0 mm 0.00 in0.0 mm
10:00 AM 74.8°F23.8°C 52.7°F11.5°C 46% 2.2 mph E3.5 kmh E 6.9 mph11.1 kmh 30.83 in1044.0 mb 0.00 in0.0 mm 0.00 in0.0 mm 0.00 in0.0 mm
10:05 AM 74.7°F23.7°C 53.1°F11.7°C 47% 5.4 mph E8.7 kmh E 6.9 mph11.1 kmh 30.39 in1029.1 mb 0.00 in0.0 mm 0.00 in0.0 mm 0.00 in0.0 mm
10:15 AM 74.8°F23.8°C 52.7°F11.5°C 46% 3.8 mph SE6.1 kmh SE 10.7 mph17.2 kmh 30.83 in1044.0 mb 0.00 in0.0 mm 0.00 in0.0 mm 0.00 in0.0 mm
10:30 AM 74.8°F23.8°C 52.7°F11.5°C 46% 8.3 mph SSE13.4 kmh SSE 12.1 mph19.5 kmh 30.83 in1044.0 mb 0.00 in0.0 mm 0.00 in0.0 mm 0.00 in0.0 mm
10:35 AM 74.8°F23.8°C 52.7°F11.5°C 46% 3.8 mph SE6.1 kmh SE 4.5 mph7.2 kmh 30.39 in1029.1 mb 0.00 in0.0 mm 0.00 in0.0 mm 0.00 in0.0 mm
10:45 AM 75.2°F24.0°C 53.6°F12.0°C 47% 3.1 mph SE5.0 kmh SE 11.4 mph18.3 kmh 30.83 in1044.0 mb 0.00 in0.0 mm 0.00 in0.0 mm 0.00 in0.0 mm
11:00 AM 75.2°F24.0°C 52.4°F11.3°C 45% 8.3 mph SE13.4 kmh SE 12.1 mph19.5 kmh 30.83 in1044.0 mb 0.00 in0.0 mm 0.00 in0.0 mm 0.00 in0.0 mm
11:05 AM 75.2°F24.0°C 52.4°F11.3°C 45% 5.4 mph SW8.7 kmh SW 8.3 mph13.4 kmh 30.38 in1028.8 mb 0.00 in0.0 mm 0.00 in0.0 mm 0.00 in0.0 mm
11:15 AM 75.6°F24.2°C 51.5°F10.8°C 43% 4.5 mph SSE7.2 kmh SSE 10.7 mph17.2 kmh 30.83 in1044.0 mb 0.00 in0.0 mm 0.00 in0.0 mm 0.00 in0.0 mm
11:30 AM 75.6°F24.2°C 51.5°F10.8°C 43% 6.9 mph SE11.1 kmh SE 9.2 mph14.8 kmh 30.82 in1043.7 mb 0.00 in0.0 mm 0.00 in0.0 mm 0.00 in0.0 mm
11:35 AM 75.6°F24.2°C 51.5°F10.8°C 43% 3.1 mph E5.0 kmh E 4.5 mph7.2 kmh 30.38 in1028.8 mb 0.00 in0.0 mm 0.00 in0.0 mm 0.00 in0.0 mm
11:45 AM 75.6°F24.2°C 51.5°F10.8°C 43% 1.6 mph ESE2.6 kmh ESE 10.7 mph17.2 kmh 30.82 in1043.7 mb 0.00 in0.0 mm 0.00 in0.0 mm 0.00 in0.0 mm
12:00 PM 76.1°F24.5°C 52.0°F11.1°C 43% 4.5 mph S7.2 kmh S 7.6 mph12.2 kmh 30.82 in1043.7 mb 0.00 in0.0 mm 0.00 in0.0 mm 0.00 in0.0 mm
12:05 PM 76.1°F24.5°C 52.0°F11.1°C 43% 5.4 mph S8.7 kmh S 7.6 mph12.2 kmh 30.38 in1028.8 mb 0.00 in0.0 mm 0.00 in0.0 mm 0.00 in0.0 mm
12:15 PM 76.5°F24.7°C 51.7°F10.9°C 42% 5.4 mph SSE8.7 kmh SSE 13.0 mph20.9 kmh 30.81 in1043.3 mb 0.00 in0.0 mm 0.00 in0.0 mm 0.00 in0.0 mm
12:30 PM 76.8°F24.9°C 51.3°F10.7°C 41% 0.7 mph SE1.1 kmh SE 9.2 mph14.8 kmh 30.82 in1043.7 mb 0.00 in0.0 mm 0.00 in0.0 mm 0.00 in0.0 mm
12:35 PM 77.0°F25.0°C 51.5°F10.8°C 41% 2.2 mph E3.5 kmh E 3.1 mph5.0 kmh 30.38 in1028.8 mb 0.00 in0.0 mm 0.00 in0.0 mm 0.00 in0.0 mm
12:45 PM 76.3°F24.6°C 50.8°F10.4°C 41% 0.7 mph NE1.1 kmh NE 6.9 mph11.1 kmh 30.80 in1043.0 mb 0.00 in0.0 mm 0.00 in0.0 mm 0.00 in0.0 mm
01:00 PM 76.8°F24.9°C 52.0°F11.1°C 42% 3.8 mph SSE6.1 kmh SSE 9.2 mph14.8 kmh 30.80 in1043.0 mb 0.00 in0.0 mm 0.00 in0.0 mm 0.00 in0.0 mm
01:05 PM 76.8°F24.9°C 52.0°F11.1°C 42% 3.8 mph SE6.1 kmh SE 6.0 mph9.7 kmh 30.36 in1028.1 mb 0.00 in0.0 mm 0.00 in0.0 mm 0.00 in0.0 mm
01:15 PM 77.7°F25.4°C 52.8°F11.6°C 42% 5.4 mph S8.7 kmh S 9.2 mph14.8 kmh 30.80 in1043.0 mb 0.00 in0.0 mm 0.00 in0.0 mm 0.00 in0.0 mm
01:30 PM 77.5°F25.3°C 52.0°F11.1°C 41% 1.6 mph E2.6 kmh E 10.7 mph17.2 kmh 30.80 in1043.0 mb 0.00 in0.0 mm 0.00 in0.0 mm 0.00 in0.0 mm
01:35 PM 77.7°F25.4°C 52.1°F11.2°C 41% 4.5 mph E7.2 kmh E 6.0 mph9.7 kmh 30.35 in1027.8 mb 0.00 in0.0 mm 0.00 in0.0 mm 0.00 in0.0 mm
01:45 PM 77.9°F25.5°C 52.3°F11.3°C 41% 7.6 mph SE12.2 kmh SE 9.2 mph14.8 kmh 30.79 in1042.7 mb 0.00 in0.0 mm 0.00 in0.0 mm 0.00 in0.0 mm
02:00 PM 77.7°F25.4°C 52.1°F11.2°C 41% 6.0 mph NE9.7 kmh NE 8.3 mph13.4 kmh 30.79 in1042.7 mb 0.00 in0.0 mm 0.00 in0.0 mm 0.00 in0.0 mm
02:05 PM 77.7°F25.4°C 52.1°F11.2°C 41% 4.5 mph NE7.2 kmh NE 5.4 mph8.7 kmh 30.35 in1027.8 mb 0.00 in0.0 mm 0.00 in0.0 mm 0.00 in0.0 mm
02:15 PM 77.7°F25.4°C 51.5°F10.8°C 40% 3.1 mph E5.0 kmh E 9.8 mph15.8 kmh 30.79 in1042.7 mb 0.00 in0.0 mm 0.00 in0.0 mm 0.00 in0.0 mm
02:30 PM 78.1°F25.6°C 52.5°F11.4°C 41% 2.2 mph SE3.5 kmh SE 6.9 mph11.1 kmh 30.78 in1042.3 mb 0.00 in0.0 mm 0.00 in0.0 mm 0.00 in0.0 mm
02:35 PM 77.9°F25.5°C 52.3°F11.3°C 41% 1.6 mph SE2.6 kmh SE 3.1 mph5.0 kmh 30.34 in1027.4 mb 0.00 in0.0 mm 0.00 in0.0 mm 0.00 in0.0 mm
02:45 PM 78.6°F25.9°C 52.3°F11.3°C 40% 8.3 mph SE13.4 kmh SE 10.7 mph17.2 kmh 30.78 in1042.3 mb 0.00 in0.0 mm 0.00 in0.0 mm 0.00 in0.0 mm
03:00 PM 78.8°F26.0°C 52.4°F11.3°C 40% 3.8 mph SSE6.1 kmh SSE 8.3 mph13.4 kmh 30.78 in1042.3 mb 0.00 in0.0 mm 0.00 in0.0 mm 0.00 in0.0 mm
03:05 PM 78.6°F25.9°C 52.3°F11.3°C 40% 5.4 mph E8.7 kmh E 7.6 mph12.2 kmh 30.33 in1027.1 mb 0.00 in0.0 mm 0.00 in0.0 mm 0.00 in0.0 mm
03:15 PM 79.0°F26.1°C 51.9°F11.1°C 39% 4.5 mph S7.2 kmh S 8.3 mph13.4 kmh 30.77 in1042.0 mb 0.00 in0.0 mm 0.00 in0.0 mm 0.00 in0.0 mm
03:30 PM 79.3°F26.3°C 52.2°F11.2°C 39% 1.6 mph SSE2.6 kmh SSE 6.9 mph11.1 kmh 30.77 in1042.0 mb 0.00 in0.0 mm 0.00 in0.0 mm 0.00 in0.0 mm
03:35 PM 79.3°F26.3°C 52.2°F11.2°C 39% 2.2 mph SE3.5 kmh SE 3.1 mph5.0 kmh 30.32 in1026.8 mb 0.00 in0.0 mm 0.00 in0.0 mm 0.00 in0.0 mm
03:45 PM 79.5°F26.4°C 52.4°F11.3°C 39% 4.5 mph SE7.2 kmh SE 8.3 mph13.4 kmh 30.77 in1042.0 mb 0.00 in0.0 mm 0.00 in0.0 mm 0.00 in0.0 mm
04:00 PM 79.2°F26.2°C 52.1°F11.2°C 39% 0.7 mph SE1.1 kmh SE 9.2 mph14.8 kmh 30.76 in1041.7 mb 0.00 in0.0 mm 0.00 in0.0 mm 0.00 in0.0 mm
04:05 PM 79.2°F26.2°C 51.4°F10.8°C 38% 6.0 mph SE9.7 kmh SE 6.9 mph11.1 kmh 30.32 in1026.8 mb 0.00 in0.0 mm 0.00 in0.0 mm 0.00 in0.0 mm
04:15 PM 79.0°F26.1°C 51.9°F11.1°C 39% 3.8 mph S6.1 kmh S 7.6 mph12.2 kmh 30.77 in1042.0 mb 0.00 in0.0 mm 0.00 in0.0 mm 0.00 in0.0 mm
04:30 PM 78.6°F25.9°C 52.3°F11.3°C 40% 1.6 mph S2.6 kmh S 5.4 mph8.7 kmh 30.76 in1041.7 mb 0.00 in0.0 mm 0.00 in0.0 mm 0.00 in0.0 mm
04:35 PM 78.6°F25.9°C 51.6°F10.9°C 39% 2.2 mph S3.5 kmh S 3.1 mph5.0 kmh 30.31 in1026.4 mb 0.00 in0.0 mm 0.00 in0.0 mm 0.00 in0.0 mm
04:45 PM 78.1°F25.6°C 51.8°F11.0°C 40% 3.8 mph S6.1 kmh S 8.3 mph13.4 kmh 30.76 in1041.7 mb 0.00 in0.0 mm 0.00 in0.0 mm 0.00 in0.0 mm
05:00 PM 77.4°F25.2°C 51.1°F10.6°C 40% 2.2 mph S3.5 kmh S 5.4 mph8.7 kmh 30.76 in1041.7 mb 0.00 in0.0 mm 0.00 in0.0 mm 0.00 in0.0 mm
05:05 PM 77.5°F25.3°C 51.3°F10.7°C 40% 1.6 mph S2.6 kmh S 2.2 mph3.5 kmh 30.31 in1026.4 mb 0.00 in0.0 mm 0.00 in0.0 mm 0.00 in0.0 mm
05:15 PM 76.6°F24.8°C 51.2°F10.7°C 41% 3.1 mph S5.0 kmh S 6.0 mph9.7 kmh 30.76 in1041.7 mb 0.00 in0.0 mm 0.00 in0.0 mm 0.00 in0.0 mm
05:30 PM 75.9°F24.4°C 51.8°F11.0°C 43% 1.6 mph SSE2.6 kmh SSE 4.5 mph7.2 kmh 30.76 in1041.7 mb 0.00 in0.0 mm 0.00 in0.0 mm 0.00 in0.0 mm
05:35 PM 76.1°F24.5°C 52.0°F11.1°C 43% 3.1 mph S5.0 kmh S 4.5 mph7.2 kmh 30.31 in1026.4 mb 0.00 in0.0 mm 0.00 in0.0 mm 0.00 in0.0 mm
05:45 PM 75.2°F24.0°C 51.8°F11.0°C 44% 2.2 mph S3.5 kmh S 4.5 mph7.2 kmh 30.75 in1041.3 mb 0.00 in0.0 mm 0.00 in0.0 mm 0.00 in0.0 mm
06:00 PM 74.1°F23.4°C 52.6°F11.4°C 47% 1.6 mph S2.6 kmh S 3.1 mph5.0 kmh 30.75 in1041.3 mb 0.00 in0.0 mm 0.00 in0.0 mm 0.00 in0.0 mm
06:05 PM 74.3°F23.5°C 52.2°F11.2°C 46% 2.2 mph S3.5 kmh S 3.1 mph5.0 kmh 30.31 in1026.4 mb 0.00 in0.0 mm 0.00 in0.0 mm 0.00 in0.0 mm
06:15 PM 73.0°F22.8°C 52.2°F11.2°C 48% 0.7 mph SE1.1 kmh SE 2.2 mph3.5 kmh 30.76 in1041.7 mb 0.00 in0.0 mm 0.00 in0.0 mm 0.00 in0.0 mm
06:30 PM 72.0°F22.2°C 54.9°F12.7°C 55% Calm Calm 1.6 mph2.6 kmh 30.76 in1041.7 mb 0.00 in0.0 mm 0.00 in0.0 mm 0.00 in0.0 mm
06:35 PM 72.1°F22.3°C 54.6°F12.6°C 54% Calm Calm 0.7 mph1.1 kmh 30.31 in1026.4 mb 0.00 in0.0 mm 0.00 in0.0 mm 0.00 in0.0 mm
06:45 PM 70.3°F21.3°C 54.9°F12.7°C 58% Calm Calm 0.7 mph1.1 kmh 30.76 in1041.7 mb 0.00 in0.0 mm 0.00 in0.0 mm 0.00 in0.0 mm
07:00 PM 69.4°F20.8°C 54.9°F12.7°C 60% 1.6 mph SE2.6 kmh SE 2.2 mph3.5 kmh 30.76 in1041.7 mb 0.00 in0.0 mm 0.00 in0.0 mm 0.00 in0.0 mm
07:05 PM 69.4°F20.8°C 54.9°F12.7°C 60% 1.6 mph SE2.6 kmh SE 2.2 mph3.5 kmh 30.32 in1026.8 mb 0.00 in0.0 mm 0.00 in0.0 mm 0.00 in0.0 mm
07:15 PM 67.3°F19.6°C 53.4°F11.9°C 61% 0.7 mph SE1.1 kmh SE 2.2 mph3.5 kmh 30.77 in1042.0 mb 0.00 in0.0 mm 0.00 in0.0 mm 0.00 in0.0 mm
07:30 PM 66.2°F19.0°C 52.8°F11.6°C 62% 0.7 mph SE1.1 kmh SE 2.2 mph3.5 kmh 30.78 in1042.3 mb 0.00 in0.0 mm 0.00 in0.0 mm 0.00 in0.0 mm
07:35 PM 66.2°F19.0°C 52.8°F11.6°C 62% 0.7 mph SE1.1 kmh SE 1.6 mph2.6 kmh 30.32 in1026.8 mb 0.00 in0.0 mm 0.00 in0.0 mm 0.00 in0.0 mm
07:45 PM 64.9°F18.3°C 52.5°F11.4°C 64% Calm Calm 1.6 mph2.6 kmh 30.77 in1042.0 mb 0.00 in0.0 mm 0.00 in0.0 mm 0.00 in0.0 mm
08:00 PM 64.0°F17.8°C 52.0°F11.1°C 65% 1.6 mph SE2.6 kmh SE 2.2 mph3.5 kmh 30.77 in1042.0 mb 0.00 in0.0 mm 0.00 in0.0 mm 0.00 in0.0 mm
08:05 PM 64.2°F17.9°C 52.2°F11.2°C 65% 1.6 mph SE2.6 kmh SE 1.6 mph2.6 kmh 30.32 in1026.8 mb 0.00 in0.0 mm 0.00 in0.0 mm 0.00 in0.0 mm
08:15 PM 63.1°F17.3°C 53.2°F11.8°C 70% 0.7 mph SE1.1 kmh SE 2.2 mph3.5 kmh 30.78 in1042.3 mb 0.00 in0.0 mm 0.00 in0.0 mm 0.00 in0.0 mm
08:30 PM 62.4°F16.9°C 53.3°F11.8°C 72% 1.6 mph SE2.6 kmh SE 2.2 mph3.5 kmh 30.78 in1042.3 mb 0.00 in0.0 mm 0.00 in0.0 mm 0.00 in0.0 mm
08:35 PM 62.4°F16.9°C 53.3°F11.8°C 72% 0.7 mph SE1.1 kmh SE 1.6 mph2.6 kmh 30.33 in1027.1 mb 0.00 in0.0 mm 0.00 in0.0 mm 0.00 in0.0 mm
08:45 PM 61.7°F16.5°C 53.0°F11.7°C 73% 0.7 mph SE1.1 kmh SE 2.2 mph3.5 kmh 30.77 in1042.0 mb 0.00 in0.0 mm 0.00 in0.0 mm 0.00 in0.0 mm
09:00 PM 61.0°F16.1°C 52.3°F11.3°C 73% Calm Calm 2.2 mph3.5 kmh 30.77 in1042.0 mb 0.00 in0.0 mm 0.00 in0.0 mm 0.00 in0.0 mm
09:05 PM 61.2°F16.2°C 52.4°F11.3°C 73% Calm Calm 0.7 mph1.1 kmh 30.33 in1027.1 mb 0.00 in0.0 mm 0.00 in0.0 mm 0.00 in0.0 mm
09:15 PM 60.4°F15.8°C 52.1°F11.2°C 74% Calm Calm 1.6 mph2.6 kmh 30.77 in1042.0 mb 0.00 in0.0 mm 0.00 in0.0 mm 0.00 in0.0 mm
09:30 PM 60.1°F15.6°C 52.1°F11.2°C 75% 1.6 mph SE2.6 kmh SE 2.2 mph3.5 kmh 30.77 in1042.0 mb 0.00 in0.0 mm 0.00 in0.0 mm 0.00 in0.0 mm
09:35 PM 60.1°F15.6°C 52.1°F11.2°C 75% 1.6 mph SE2.6 kmh SE 2.2 mph3.5 kmh 30.33 in1027.1 mb 0.00 in0.0 mm 0.00 in0.0 mm 0.00 in0.0 mm
09:45 PM 59.5°F15.3°C 52.0°F11.1°C 76% 0.7 mph SE1.1 kmh SE 2.2 mph3.5 kmh 30.77 in1042.0 mb 0.00 in0.0 mm 0.00 in0.0 mm 0.00 in0.0 mm
10:00 PM 59.2°F15.1°C 51.6°F10.9°C 76% 1.6 mph SE2.6 kmh SE 2.2 mph3.5 kmh 30.77 in1042.0 mb 0.00 in0.0 mm 0.00 in0.0 mm 0.00 in0.0 mm
10:05 PM 59.4°F15.2°C 51.8°F11.0°C 76% 0.7 mph SE1.1 kmh SE 1.6 mph2.6 kmh 30.32 in1026.8 mb 0.00 in0.0 mm 0.00 in0.0 mm 0.00 in0.0 mm
10:15 PM 59.0°F15.0°C 51.8°F11.0°C 77% 0.7 mph SE1.1 kmh SE 1.6 mph2.6 kmh 30.77 in1042.0 mb 0.00 in0.0 mm 0.00 in0.0 mm 0.00 in0.0 mm
10:30 PM 58.6°F14.8°C 51.4°F10.8°C 77% Calm Calm 1.6 mph2.6 kmh 30.77 in1042.0 mb 0.00 in0.0 mm 0.00 in0.0 mm 0.00 in0.0 mm
10:35 PM 58.6°F14.8°C 51.4°F10.8°C 77% Calm Calm 0.7 mph1.1 kmh 30.32 in1026.8 mb 0.00 in0.0 mm 0.00 in0.0 mm 0.00 in0.0 mm
10:45 PM 58.3°F14.6°C 51.4°F10.8°C 78% 0.7 mph SE1.1 kmh SE 1.6 mph2.6 kmh 30.77 in1042.0 mb 0.00 in0.0 mm 0.00 in0.0 mm 0.00 in0.0 mm
11:00 PM 58.3°F14.6°C 51.8°F11.0°C 79% 0.7 mph SE1.1 kmh SE 2.2 mph3.5 kmh 30.77 in1042.0 mb 0.00 in0.0 mm 0.00 in0.0 mm 0.00 in0.0 mm
11:05 PM 58.3°F14.6°C 51.8°F11.0°C 79% 1.6 mph SE2.6 kmh SE 2.2 mph3.5 kmh 30.32 in1026.8 mb 0.00 in0.0 mm 0.00 in0.0 mm 0.00 in0.0 mm
11:15 PM 58.1°F14.5°C 51.6°F10.9°C 79% 1.6 mph SE2.6 kmh SE 2.2 mph3.5 kmh 30.77 in1042.0 mb 0.00 in0.0 mm 0.00 in0.0 mm 0.00 in0.0 mm
11:30 PM 58.1°F14.5°C 51.6°F10.9°C 79% 1.6 mph SE2.6 kmh SE 2.2 mph3.5 kmh 30.77 in1042.0 mb 0.00 in0.0 mm 0.00 in0.0 mm 0.00 in0.0 mm
11:35 PM 58.1°F14.5°C 51.6°F10.9°C 79% 0.7 mph SE1.1 kmh SE 1.6 mph2.6 kmh 30.33 in1027.1 mb 0.00 in0.0 mm 0.00 in0.0 mm 0.00 in0.0 mm
11:45 PM 58.3°F14.6°C 51.4°F10.8°C 78% 1.6 mph SE2.6 kmh SE 3.1 mph5.0 kmh 30.78 in1042.3 mb 0.00 in0.0 mm 0.00 in0.0 mm 0.00 in0.0 mm